Página principal
METAR-TAF:

METAR-TAF

Aeroportos :

Aeroporto Internacional de El Alto

La Paz, Bolívia

latitude: 16-31S, longitude: 068-11W, altura: 4058 m

Observação actual do tempo

O boletim foi feito há 25 minutos, às 06:00 UTC
Vento 4 kt de es-nordeste
Temperatura -2°C
Humidade 80%
Pressão 1036 hPa
Visibilidade 10 km ou mais

METAR: SLLP 220600Z 06004KT 9999 NSC M02/M05 Q1036

Hora: 02:25 (06:25 UTC)

Previsão

O boletim foi feito há 2 horas e 23 minutos, às 04:02 UTC
Previsão válida de 22 às 06 UTC a 23 às 06 UTC
Vento 5 kt de nordeste
Visibilidade 10 km ou mais
Poucas nuvensa uma altura de 1300 ft
Tornando-se
de 22 às 15 UTC a 22 às 17 UTC
Vento 10 kt de oes-sudoeste
Temporariamente
de 22 às 19 UTC a 22 às 21 UTC
Vento 15 kt de oeste com rajadas de 25 kt
Tornando-se
de 22 às 23 UTC a 23 às 02 UTC
Vento 5 kt de nordeste

TAF: SLLP 220402Z 2206/2306 05005KT 9999 FEW013 TX17/2220Z TNM06/2210Z BECMG 2215/2217 24010KT TEMPO 2219/2221 27015G25KT BECMG 2223/2302 04005KT

Observações e previsões do tempo de mais de 4000 aeroportos (mensagens METAR e TAF).

As estações disponíveis são os pontos amarelos e vermelhos sobre o mapa.

Mova o rato sobre o mapa para ver o nome da estação.

Depois clique no ponto para visualizar as observações e previsões meteorológicas.

Para alterar o mapa : clique nos botões verdes com uma cruz preta para aumentar o zoom; no botão verde com uma pitada de zoom; ou nas setas verdes para mapas adjacentes.


METAR-TAF: